Time;durP1;ratioP1;P1;durP2;ratioP2;P2;SDS_P1;SDS_P2;PMS_P1;PMS_P2;Temp;Humidity;BMP_temperature;BMP_pressure;BME280_temperature;BME280_humidity;BME280_pressure;Samples;Min_cycle;Max_cycle;Signal;HPM_P1;HPM_P2
2023/11/11 00:01:59;;;;;;;2.97;2.50;;;6.10;99.90;;;;;;5070215;28;20323;-87
2023/11/11 00:04:25;;;;;;;3.37;2.83;;;6.10;99.90;;;;;;5055220;28;20216;-86
2023/11/11 00:06:51;;;;;;;7.93;3.33;;;6.10;99.90;;;;;;5055107;28;20275;-85
2023/11/11 00:09:18;;;;;;;8.35;4.40;;;6.20;99.90;;;;;;5054777;28;20182;-89
2023/11/11 00:11:44;;;;;;;5.03;3.60;;;6.20;99.90;;;;;;5055074;28;20177;-88
2023/11/11 00:14:11;;;;;;;5.68;4.25;;;6.20;99.90;;;;;;5055361;28;20196;-85
2023/11/11 00:16:36;;;;;;;6.20;5.40;;;6.10;99.90;;;;;;5054818;28;20182;-87
2023/11/11 00:19:02;;;;;;;10.10;6.17;;;6.20;99.90;;;;;;5055837;28;20256;-86
2023/11/11 00:21:28;;;;;;;9.40;6.05;;;6.20;99.90;;;;;;5055453;28;20701;-86
2023/11/11 00:23:58;;;;;;;7.63;5.67;;;6.20;99.90;;;;;;5054834;28;20177;-87
2023/11/11 00:26:24;;;;;;;8.35;6.78;;;6.20;99.90;;;;;;5056129;28;20657;-88
2023/11/11 00:28:49;;;;;;;7.13;5.40;;;6.30;99.90;;;;;;5054635;28;20186;-87
2023/11/11 00:31:16;;;;;;;12.83;6.80;;;6.30;99.90;;;;;;5053852;28;20189;-85
2023/11/11 00:33:42;;;;;;;18.88;7.97;;;6.30;99.90;;;;;;5057243;28;20653;-88
2023/11/11 00:36:09;;;;;;;11.95;7.80;;;6.40;99.90;;;;;;5076664;28;20199;-87
2023/11/11 00:38:36;;;;;;;9.30;7.90;;;6.40;99.90;;;;;;5074305;28;20226;-89
2023/11/11 00:41:04;;;;;;;15.18;8.88;;;6.30;99.90;;;;;;5074201;28;20280;-89
2023/11/11 00:43:31;;;;;;;12.68;10.20;;;6.40;99.90;;;;;;5074892;28;20184;-89
2023/11/11 00:45:57;;;;;;;16.83;11.02;;;6.40;99.90;;;;;;5074101;28;20256;-88
2023/11/11 00:48:24;;;;;;;21.10;14.65;;;6.40;99.90;;;;;;5074749;28;20598;-88
2023/11/11 00:50:50;;;;;;;21.95;15.07;;;6.50;99.90;;;;;;5058276;28;20192;-88
2023/11/11 00:53:17;;;;;;;26.35;17.30;;;6.50;99.90;;;;;;5074698;28;20192;-87
2023/11/11 00:55:43;;;;;;;23.45;16.40;;;6.60;99.90;;;;;;5074725;28;20190;-90
2023/11/11 00:58:09;;;;;;;27.27;19.87;;;6.60;99.90;;;;;;5074882;28;20181;-87
2023/11/11 01:00:35;;;;;;;26.33;18.80;;;6.60;99.90;;;;;;5057320;28;20549;-87
2023/11/11 01:03:01;;;;;;;29.60;20.80;;;6.60;99.90;;;;;;5074309;28;20186;-87
2023/11/11 01:05:26;;;;;;;32.23;21.57;;;6.60;99.90;;;;;;5041131;28;20227;-87
2023/11/11 01:07:52;;;;;;;30.20;22.10;;;6.70;99.90;;;;;;5074072;28;20259;-87
2023/11/11 01:10:21;;;;;;;32.67;21.17;;;6.70;99.90;;;;;;5075145;28;20173;-87
2023/11/11 01:12:47;;;;;;;35.17;23.05;;;6.80;99.90;;;;;;5074031;28;20288;-87
2023/11/11 01:15:12;;;;;;;29.17;20.97;;;6.80;99.90;;;;;;5074836;28;20250;-87
2023/11/11 01:17:38;;;;;;;36.20;22.80;;;6.80;99.90;;;;;;5074151;28;20559;-87
2023/11/11 01:20:05;;;;;;;30.60;20.80;;;6.80;99.90;;;;;;5073739;28;20186;-88
2023/11/11 01:22:31;;;;;;;32.30;21.60;;;6.80;99.90;;;;;;5074236;28;20173;-87
2023/11/11 01:24:57;;;;;;;31.50;20.03;;;6.80;99.90;;;;;;5073973;28;20188;-87
2023/11/11 01:27:23;;;;;;;32.17;20.30;;;6.80;99.90;;;;;;5073671;28;20910;-87
2023/11/11 01:29:49;;;;;;;40.20;23.67;;;6.80;99.90;;;;;;5073803;28;20175;-88
2023/11/11 01:32:17;;;;;;;29.30;20.83;;;6.80;99.90;;;;;;5075371;28;20696;-88
2023/11/11 01:34:43;;;;;;;31.67;19.70;;;6.70;99.90;;;;;;5073851;28;20419;-88
2023/11/11 01:37:09;;;;;;;26.80;16.90;;;6.80;99.90;;;;;;5073565;28;20190;-88
2023/11/11 01:39:35;;;;;;;32.35;21.70;;;6.80;99.90;;;;;;5073533;28;20793;-88
2023/11/11 01:42:01;;;;;;;30.17;19.60;;;6.80;99.90;;;;;;5073391;28;20189;-87
2023/11/11 01:44:30;;;;;;;31.70;20.80;;;6.70;99.90;;;;;;5073532;28;20176;-88
2023/11/11 01:46:56;;;;;;;34.03;20.90;;;6.70;99.90;;;;;;5073602;28;20201;-88
2023/11/11 01:49:22;;;;;;;36.53;19.30;;;6.70;99.90;;;;;;5073482;28;20664;-88
2023/11/11 01:51:53;;;;;;;29.45;18.92;;;6.70;99.90;;;;;;5072988;28;20183;-89
2023/11/11 01:54:21;;;;;;;32.95;18.85;;;6.60;99.90;;;;;;5073744;28;20180;-88
2023/11/11 01:56:47;;;;;;;28.10;18.05;;;6.60;99.90;;;;;;5073384;28;20188;-91
2023/11/11 01:59:13;;;;;;;33.67;19.00;;;6.60;99.90;;;;;;5073827;28;20536;-87
2023/11/11 02:01:39;;;;;;;31.15;19.52;;;6.60;99.90;;;;;;5072910;28;20231;-88
2023/11/11 02:04:04;;;;;;;25.80;17.20;;;6.60;99.90;;;;;;5073436;28;20680;-88
2023/11/11 02:06:31;;;;;;;26.63;18.80;;;6.50;99.90;;;;;;5073457;28;20577;-88
2023/11/11 02:08:57;;;;;;;31.40;18.27;;;6.50;99.90;;;;;;5069829;28;20200;-88
2023/11/11 02:11:23;;;;;;;32.92;20.17;;;6.50;99.90;;;;;;5063872;28;20183;-88
2023/11/11 02:13:48;;;;;;;31.30;19.50;;;6.50;99.90;;;;;;5093672;28;20274;-89
2023/11/11 02:16:15;;;;;;;32.93;20.17;;;6.60;99.90;;;;;;5077611;28;20237;-88
2023/11/11 02:18:41;;;;;;;30.58;18.50;;;6.60;99.90;;;;;;5073257;28;20263;-88
2023/11/11 02:21:07;;;;;;;29.67;19.00;;;6.70;99.90;;;;;;5073314;28;20219;-88
2023/11/11 02:23:36;;;;;;;25.87;17.33;;;6.60;99.90;;;;;;5056674;28;20229;-88
2023/11/11 02:26:04;;;;;;;29.98;18.02;;;6.60;99.90;;;;;;5053033;28;20220;-88
2023/11/11 02:28:30;;;;;;;42.08;20.10;;;6.60;99.90;;;;;;5053244;28;20187;-85
2023/11/11 02:30:56;;;;;;;33.17;20.10;;;6.60;99.90;;;;;;5053496;28;20185;-86
2023/11/11 02:33:24;;;;;;;41.05;21.48;;;6.70;99.90;;;;;;5053065;28;20648;-86
2023/11/11 02:35:50;;;;;;;37.28;21.95;;;6.70;99.90;;;;;;5053556;28;20192;-89
2023/11/11 02:38:15;;;;;;;35.40;20.92;;;6.70;99.90;;;;;;5073280;28;20172;-88
2023/11/11 02:40:41;;;;;;;35.80;21.13;;;6.70;99.90;;;;;;5073094;28;20648;-88
2023/11/11 02:43:07;;;;;;;43.33;21.87;;;6.70;99.90;;;;;;5072812;28;20185;-88
2023/11/11 02:45:33;;;;;;;35.33;20.83;;;6.70;99.90;;;;;;5056271;28;20475;-88
2023/11/11 02:48:03;;;;;;;37.00;21.67;;;6.70;99.90;;;;;;5056498;28;20188;-87
2023/11/11 02:50:29;;;;;;;39.78;22.17;;;6.70;99.90;;;;;;5072814;28;20179;-88
2023/11/11 02:52:55;;;;;;;42.80;22.47;;;6.70;99.90;;;;;;5072949;28;20179;-88
2023/11/11 02:55:23;;;;;;;35.47;22.77;;;6.70;99.90;;;;;;5075846;28;20527;-88
2023/11/11 02:57:49;;;;;;;43.22;23.02;;;6.80;99.90;;;;;;5076957;28;20183;-88
2023/11/11 03:00:15;;;;;;;39.20;23.00;;;6.80;99.90;;;;;;5077788;28;20411;-88
2023/11/11 03:02:40;;;;;;;43.35;23.35;;;6.70;99.90;;;;;;5076639;28;20238;-86
2023/11/11 03:05:07;;;;;;;37.73;23.60;;;6.80;99.90;;;;;;5076732;28;20639;-86
2023/11/11 03:07:34;;;;;;;40.15;22.33;;;6.70;99.90;;;;;;5076822;28;20181;-86
2023/11/11 03:10:04;;;;;;;38.25;21.95;;;6.60;99.90;;;;;;5076636;28;20179;-87
2023/11/11 03:12:30;;;;;;;37.70;21.30;;;6.60;99.90;;;;;;5059902;28;20287;-86
2023/11/11 03:14:56;;;;;;;37.00;21.67;;;6.60;99.90;;;;;;5076336;28;20314;-86
2023/11/11 03:17:23;;;;;;;37.65;19.40;;;6.60;99.90;;;;;;5076280;28;20207;-86
2023/11/11 03:19:48;;;;;;;37.47;20.92;;;6.70;99.90;;;;;;5076203;28;20188;-86
2023/11/11 03:22:14;;;;;;;35.53;16.97;;;6.70;99.90;;;;;;5072509;28;20184;-88
2023/11/11 03:24:41;;;;;;;22.03;12.43;;;6.70;99.90;;;;;;5056627;28;20187;-91
2023/11/11 03:27:06;;;;;;;29.17;14.98;;;6.70;99.90;;;;;;5071260;28;20305;-86
2023/11/11 03:29:32;;;;;;;21.90;14.03;;;6.70;99.90;;;;;;5077240;28;20212;-87
2023/11/11 03:31:58;;;;;;;24.00;10.67;;;6.70;99.90;;;;;;5075652;28;20540;-87
2023/11/11 03:34:23;;;;;;;24.73;12.47;;;6.70;99.90;;;;;;5059310;28;20191;-87
2023/11/11 03:36:49;;;;;;;16.60;9.90;;;6.70;99.90;;;;;;5059254;28;20641;-89
2023/11/11 03:39:16;;;;;;;14.83;9.93;;;6.70;99.90;;;;;;5058925;28;20276;-89
2023/11/11 03:41:44;;;;;;;20.15;10.05;;;6.70;99.90;;;;;;5076052;28;20184;-87
2023/11/11 03:44:10;;;;;;;13.40;8.95;;;6.70;99.90;;;;;;5076858;28;20201;-87
2023/11/11 03:46:35;;;;;;;15.77;9.70;;;6.70;99.90;;;;;;5077366;28;20606;-87
2023/11/11 03:49:01;;;;;;;14.57;7.73;;;6.70;99.90;;;;;;5075834;28;20184;-88
2023/11/11 03:51:27;;;;;;;13.50;7.90;;;6.60;99.90;;;;;;5076270;28;20184;-87
2023/11/11 03:53:52;;;;;;;16.93;7.90;;;6.60;99.90;;;;;;5075981;28;20178;-87
2023/11/11 03:56:19;;;;;;;25.80;8.30;;;6.60;99.90;;;;;;5076969;28;20185;-87
2023/11/11 03:58:45;;;;;;;16.92;8.23;;;6.60;99.90;;;;;;5092924;28;20200;-87
2023/11/11 04:01:11;;;;;;;14.67;9.00;;;6.60;99.90;;;;;;5075263;28;20696;-87
2023/11/11 04:03:39;;;;;;;17.93;9.47;;;6.60;99.90;;;;;;5076449;28;20463;-87
2023/11/11 04:06:09;;;;;;;13.30;9.70;;;6.60;99.90;;;;;;5058245;28;20207;-88
2023/11/11 04:08:35;;;;;;;13.38;9.30;;;6.50;99.90;;;;;;5059267;28;20204;-87
2023/11/11 04:11:07;;;;;;;16.83;10.87;;;6.50;99.90;;;;;;5076904;28;20208;-88
2023/11/11 04:13:34;;;;;;;19.70;10.60;;;6.50;99.90;;;;;;5076713;28;20400;-87
2023/11/11 04:16:03;;;;;;;22.38;9.82;;;6.50;99.90;;;;;;5075112;28;20188;-88
2023/11/11 04:18:30;;;;;;;19.40;11.25;;;6.60;99.90;;;;;;5075140;28;20184;-89
2023/11/11 04:20:58;;;;;;;15.32;9.90;;;6.60;99.90;;;;;;5076283;28;20202;-92
2023/11/11 04:23:24;;;;;;;16.13;9.23;;;6.60;99.90;;;;;;5075399;28;20269;-88
2023/11/11 04:25:50;;;;;;;21.92;10.02;;;6.60;99.90;;;;;;5074958;28;20250;-88
2023/11/11 04:28:15;;;;;;;9.67;7.13;;;6.60;99.90;;;;;;5057717;28;20193;-89
2023/11/11 04:30:42;;;;;;;15.47;7.67;;;6.60;99.90;;;;;;5074931;28;20422;-90
2023/11/11 04:33:09;;;;;;;12.30;7.70;;;6.60;99.90;;;;;;5074495;28;20214;-89
2023/11/11 04:35:34;;;;;;;11.00;6.97;;;6.60;99.90;;;;;;5071568;28;20200;-88
2023/11/11 04:38:00;;;;;;;11.73;7.03;;;6.60;99.90;;;;;;5074262;28;20177;-89
2023/11/11 04:40:26;;;;;;;13.73;5.90;;;6.70;99.90;;;;;;5075071;28;20241;-88
2023/11/11 04:42:53;;;;;;;8.90;5.77;;;6.70;99.90;;;;;;5075973;28;20173;-88
2023/11/11 04:45:19;;;;;;;8.52;4.70;;;6.70;99.90;;;;;;5074188;28;20211;-89
2023/11/11 04:47:46;;;;;;;10.73;4.30;;;6.60;99.90;;;;;;5074609;28;20184;-89
2023/11/11 04:50:12;;;;;;;7.32;3.03;;;6.60;99.90;;;;;;5074415;28;20509;-90
2023/11/11 04:52:38;;;;;;;10.43;3.80;;;6.70;99.90;;;;;;5074998;28;20230;-89
2023/11/11 04:55:05;;;;;;;7.68;3.63;;;6.70;99.90;;;;;;5074118;28;20186;-90
2023/11/11 04:57:30;;;;;;;7.03;4.30;;;6.70;99.90;;;;;;5058384;28;20230;-89
2023/11/11 04:59:58;;;;;;;9.77;4.13;;;6.70;99.90;;;;;;5074352;28;20430;-89
2023/11/11 05:02:25;;;;;;;7.47;4.03;;;6.80;99.90;;;;;;5074712;28;20185;-91
2023/11/11 05:04:51;;;;;;;6.85;4.88;;;6.70;99.90;;;;;;5074818;28;20547;-89
2023/11/11 05:07:19;;;;;;;7.80;4.70;;;6.70;99.90;;;;;;5074041;28;20220;-89
2023/11/11 05:09:46;;;;;;;9.05;4.68;;;6.70;99.90;;;;;;5075497;28;20542;-89
2023/11/11 05:12:12;;;;;;;12.27;4.95;;;6.70;99.90;;;;;;5074108;28;20230;-91
2023/11/11 05:14:40;;;;;;;5.17;4.07;;;6.70;99.90;;;;;;5074195;28;20180;-87
2023/11/11 05:17:07;;;;;;;5.13;2.78;;;6.60;99.90;;;;;;5073396;28;20208;-88
2023/11/11 05:19:34;;;;;;;4.78;3.17;;;6.50;99.90;;;;;;5073870;28;20197;-86
2023/11/11 05:22:00;;;;;;;3.95;2.97;;;6.50;99.90;;;;;;5073556;28;20644;-89
2023/11/11 05:24:25;;;;;;;6.63;3.70;;;6.50;99.90;;;;;;5074092;28;20262;-88
2023/11/11 05:26:51;;;;;;;7.67;4.03;;;6.40;99.90;;;;;;5057194;28;20249;-87
2023/11/11 05:29:17;;;;;;;5.87;4.77;;;6.50;99.90;;;;;;5073417;28;20190;-88
2023/11/11 05:31:43;;;;;;;11.63;4.50;;;6.50;99.90;;;;;;5073801;28;20222;-88
2023/11/11 05:34:09;;;;;;;9.15;5.75;;;6.50;99.90;;;;;;5073272;28;20188;-88
2023/11/11 05:36:35;;;;;;;10.23;7.28;;;6.50;99.90;;;;;;5073271;28;20177;-88
2023/11/11 05:39:01;;;;;;;12.17;7.90;;;6.50;99.90;;;;;;5073591;28;20511;-89
2023/11/11 05:41:37;;;;;;;13.90;7.97;;;6.40;99.90;;;;;;5073834;28;20185;-88
2023/11/11 05:44:05;;;;;;;15.23;9.50;;;6.40;99.90;;;;;;5073700;28;20423;-90
2023/11/11 05:46:31;;;;;;;10.60;7.95;;;6.40;99.90;;;;;;5073248;28;20297;-88
2023/11/11 05:48:57;;;;;;;14.87;9.57;;;6.30;99.90;;;;;;5073462;28;20192;-88
2023/11/11 05:51:24;;;;;;;14.70;9.80;;;6.30;99.90;;;;;;5073333;28;20772;-88
2023/11/11 05:54:02;;;;;;;16.95;9.07;;;6.30;99.90;;;;;;5073696;28;20510;-90
2023/11/11 05:56:54;;;;;;;27.42;10.57;;;6.30;99.90;;;;;;5068090;28;20298;-89
2023/11/11 06:02:50;;;;;;;14.75;10.52;;;6.20;99.90;;;;;;5055193;28;20320;-90
2023/11/11 06:05:30;;;;;;;22.27;10.30;;;6.20;99.90;;;;;;5057025;28;20296;-92
2023/11/11 06:08:02;;;;;;;16.67;9.10;;;6.20;99.90;;;;;;5057484;28;20230;-91
2023/11/11 06:10:37;;;;;;;14.82;9.90;;;6.20;99.90;;;;;;5057766;28;20172;-91
2023/11/11 06:13:26;;;;;;;18.95;10.10;;;6.20;99.90;;;;;;5073891;28;20241;-93
2023/11/11 06:19:27;;;;;;;;;;;;;;;;;;;;;
2023/11/11 06:22:15;;;;;;;18.13;9.63;;;6.10;99.90;;;;;;5075734;28;20175;-91
2023/11/11 06:25:35;;;;;;;14.25;10.25;;;6.10;99.90;;;;;;4995516;28;20189;-89
2023/11/11 06:28:39;;;;;;;11.88;9.40;;;6.10;99.90;;;;;;4995860;28;20684;-89
2023/11/11 06:38:04;;;;;;;13.93;10.57;;;5.90;99.90;;;;;;5035919;28;20185;-88
2023/11/11 06:40:32;;;;;;;16.50;9.80;;;5.90;99.90;;;;;;5042301;28;20558;-88
2023/11/11 06:42:58;;;;;;;24.70;9.85;;;5.80;99.90;;;;;;5057929;28;20185;-90
2023/11/11 06:45:24;;;;;;;18.10;9.80;;;5.80;99.90;;;;;;5060603;28;20200;-93
2023/11/11 06:47:49;;;;;;;22.77;11.00;;;5.70;99.90;;;;;;5063261;28;20226;-93
2023/11/11 06:50:17;;;;;;;21.13;10.33;;;5.70;99.90;;;;;;5061054;28;20184;-93
2023/11/11 06:52:44;;;;;;;23.85;11.38;;;5.70;99.90;;;;;;5060021;28;20178;-93
2023/11/11 06:55:10;;;;;;;18.17;10.88;;;5.70;99.90;;;;;;5061878;28;20178;-94
2023/11/11 06:57:37;;;;;;;22.73;12.88;;;5.60;99.90;;;;;;5065198;28;20223;-95
2023/11/11 07:00:04;;;;;;;20.83;12.35;;;5.60;99.90;;;;;;5062314;28;20182;-93
2023/11/11 07:02:30;;;;;;;25.92;14.10;;;5.60;99.90;;;;;;5062647;28;20241;-94
2023/11/11 07:05:04;;;;;;;26.55;13.85;;;5.60;99.90;;;;;;5070291;28;20211;-93
2023/11/11 07:07:31;;;;;;;23.27;13.63;;;5.60;99.90;;;;;;5086073;28;20273;-92
2023/11/11 07:09:57;;;;;;;27.85;12.52;;;5.50;99.90;;;;;;5085601;28;20179;-94
2023/11/11 07:12:22;;;;;;;26.33;13.40;;;5.50;99.90;;;;;;5084418;28;20219;-94
2023/11/11 07:14:48;;;;;;;24.23;12.50;;;5.50;99.90;;;;;;5081749;28;20177;-93
2023/11/11 07:17:13;;;;;;;22.87;12.97;;;5.50;99.90;;;;;;5079718;28;20197;-91
2023/11/11 07:19:40;;;;;;;24.13;12.80;;;5.50;99.90;;;;;;5080829;28;20641;-92
2023/11/11 07:22:06;;;;;;;22.95;11.95;;;5.40;99.90;;;;;;5080149;28;20177;-91
2023/11/11 07:24:32;;;;;;;23.90;12.87;;;5.50;99.90;;;;;;5081443;28;20549;-91
2023/11/11 07:26:57;;;;;;;27.42;13.27;;;5.50;99.90;;;;;;5081734;28;20461;-91
2023/11/11 07:29:25;;;;;;;24.10;11.77;;;5.40;99.90;;;;;;5079827;28;20185;-91
2023/11/11 07:31:51;;;;;;;26.20;13.25;;;5.50;99.90;;;;;;5076836;28;20273;-91
2023/11/11 07:34:17;;;;;;;27.67;13.15;;;5.50;99.90;;;;;;5042860;28;20187;-90
2023/11/11 07:36:43;;;;;;;20.63;11.73;;;5.50;99.90;;;;;;5061798;28;20224;-88
2023/11/11 07:39:09;;;;;;;23.73;10.97;;;5.60;99.90;;;;;;5060280;28;20177;-89
2023/11/11 07:41:34;;;;;;;28.92;13.98;;;5.60;99.90;;;;;;5064935;28;20422;-93
2023/11/11 07:44:04;;;;;;;23.20;14.03;;;5.60;99.90;;;;;;5079748;28;20539;-93
2023/11/11 07:46:32;;;;;;;29.40;14.02;;;5.70;99.90;;;;;;5080178;28;20207;-91
2023/11/11 07:48:59;;;;;;;23.77;13.90;;;5.70;99.90;;;;;;5081531;28;20240;-93
2023/11/11 07:51:25;;;;;;;27.63;12.52;;;5.80;99.90;;;;;;5077341;28;20205;-94
2023/11/11 07:53:51;;;;;;;30.60;14.00;;;5.80;99.90;;;;;;5061660;28;20192;-94
2023/11/11 07:56:17;;;;;;;24.13;15.37;;;5.90;99.90;;;;;;5061624;28;20451;-95
2023/11/11 07:58:42;;;;;;;26.67;12.70;;;6.00;99.90;;;;;;5045201;28;20184;-95
2023/11/11 08:01:08;;;;;;;33.00;16.43;;;6.00;99.90;;;;;;5062924;28;20430;-92
2023/11/11 08:03:34;;;;;;;22.67;13.50;;;6.00;99.90;;;;;;5044763;28;20185;-95
2023/11/11 08:05:59;;;;;;;22.63;12.73;;;6.10;99.90;;;;;;5061280;28;20209;-95
2023/11/11 08:08:28;;;;;;;19.37;11.17;;;6.10;99.90;;;;;;5062846;28;20546;-92
2023/11/11 08:10:54;;;;;;;20.98;12.18;;;6.10;99.90;;;;;;5064083;28;20213;-94
2023/11/11 08:13:20;;;;;;;25.93;11.37;;;6.10;99.90;;;;;;5069261;28;20185;-94
2023/11/11 08:15:46;;;;;;;24.75;11.63;;;6.10;99.90;;;;;;5048575;28;20459;-93
2023/11/11 08:18:12;;;;;;;21.67;12.50;;;6.10;99.90;;;;;;5066448;28;20191;-94
2023/11/11 08:20:38;;;;;;;24.57;11.63;;;6.30;99.90;;;;;;5049017;28;20189;-96
2023/11/11 08:23:03;;;;;;;18.00;11.90;;;6.30;99.90;;;;;;5053069;28;20176;-95
2023/11/11 08:25:29;;;;;;;23.03;9.93;;;6.40;99.90;;;;;;5080293;28;20205;-94
2023/11/11 08:27:56;;;;;;;18.40;10.40;;;6.40;99.90;;;;;;5068186;28;20629;-95
2023/11/11 08:30:22;;;;;;;18.92;9.23;;;6.50;99.90;;;;;;5084400;28;20169;-96
2023/11/11 08:32:48;;;;;;;17.23;7.97;;;6.50;99.90;;;;;;5085152;28;20517;-92
2023/11/11 08:35:15;;;;;;;15.73;9.48;;;6.50;99.90;;;;;;5049626;28;20284;-92
2023/11/11 08:37:45;;;;;;;20.40;9.68;;;6.60;99.90;;;;;;5084489;28;20507;-95
2023/11/11 08:40:11;;;;;;;18.38;10.82;;;6.70;99.90;;;;;;5080543;28;20234;-95
2023/11/11 08:42:38;;;;;;;20.05;10.35;;;6.70;99.90;;;;;;5079546;28;20172;-95
2023/11/11 08:45:05;;;;;;;20.80;11.48;;;6.70;99.90;;;;;;5079313;28;20169;-95
2023/11/11 08:47:31;;;;;;;12.82;8.35;;;6.80;99.90;;;;;;5061920;28;20721;-94
2023/11/11 08:49:56;;;;;;;25.83;10.87;;;6.90;99.90;;;;;;5062926;28;20272;-95
2023/11/11 08:52:22;;;;;;;12.30;7.33;;;6.90;99.90;;;;;;5077342;28;20184;-94
2023/11/11 08:54:50;;;;;;;16.77;7.60;;;6.90;99.90;;;;;;5060284;28;20204;-93
2023/11/11 08:57:17;;;;;;;19.42;8.10;;;6.90;99.90;;;;;;5078067;28;20406;-92
2023/11/11 08:59:42;;;;;;;13.40;7.28;;;6.90;99.90;;;;;;5059654;28;20247;-92
2023/11/11 09:02:09;;;;;;;12.60;6.40;;;7.00;99.90;;;;;;5027285;28;20339;-92
2023/11/11 09:04:35;;;;;;;11.70;7.30;;;6.90;99.90;;;;;;5061046;28;20211;-92
2023/11/11 09:07:02;;;;;;;13.93;7.60;;;6.90;99.90;;;;;;5059277;28;20545;-92
2023/11/11 09:09:28;;;;;;;13.93;9.18;;;6.90;99.90;;;;;;5063459;28;20181;-93
2023/11/11 09:11:54;;;;;;;14.98;7.88;;;6.90;99.90;;;;;;5077278;28;20677;-91
2023/11/11 09:14:20;;;;;;;12.77;6.90;;;6.90;99.90;;;;;;5058489;28;20248;-91
2023/11/11 09:16:45;;;;;;;10.47;6.13;;;6.90;99.90;;;;;;5059580;28;20422;-91
2023/11/11 09:19:11;;;;;;;19.60;8.07;;;6.90;99.90;;;;;;5059637;28;20186;-91
2023/11/11 09:21:38;;;;;;;11.67;6.80;;;7.00;99.90;;;;;;5058251;28;20174;-90
2023/11/11 09:24:06;;;;;;;11.65;6.47;;;7.00;99.90;;;;;;5058770;28;20177;-90
2023/11/11 09:26:32;;;;;;;11.93;6.82;;;7.10;99.90;;;;;;5077807;28;20200;-91
2023/11/11 09:28:59;;;;;;;9.77;5.90;;;7.10;99.90;;;;;;5042846;28;20192;-91
2023/11/11 09:31:28;;;;;;;14.82;6.80;;;7.30;99.90;;;;;;5075862;28;20415;-91
2023/11/11 09:34:00;;;;;;;11.00;6.32;;;7.30;99.90;;;;;;5057683;28;20179;-90
2023/11/11 09:36:28;;;;;;;9.07;5.60;;;7.40;99.90;;;;;;5042521;28;20304;-90
2023/11/11 09:38:54;;;;;;;8.98;5.38;;;7.40;99.90;;;;;;5042282;28;20188;-90
2023/11/11 09:41:20;;;;;;;11.90;6.30;;;7.40;99.90;;;;;;5057777;28;20200;-90
2023/11/11 09:43:46;;;;;;;10.55;6.28;;;7.40;99.90;;;;;;5037876;28;20419;-90
2023/11/11 09:46:15;;;;;;;10.83;5.40;;;7.40;99.90;;;;;;5037207;28;20199;-89
2023/11/11 09:48:41;;;;;;;8.70;4.55;;;7.40;99.90;;;;;;5055380;28;20427;-89
2023/11/11 09:51:12;;;;;;;11.88;5.75;;;7.50;99.90;;;;;;5037589;28;20202;-89
2023/11/11 09:53:40;;;;;;;10.88;5.45;;;7.60;99.90;;;;;;5037195;28;20200;-89
2023/11/11 09:56:07;;;;;;;7.90;5.38;;;7.60;99.90;;;;;;5037757;28;20264;-89
2023/11/11 09:58:34;;;;;;;11.68;4.57;;;7.60;99.90;;;;;;5020854;28;20181;-89
2023/11/11 10:01:00;;;;;;;12.60;5.10;;;7.70;99.90;;;;;;5049376;28;20267;-88
2023/11/11 10:03:26;;;;;;;15.23;5.67;;;7.70;99.90;;;;;;5041018;28;20267;-88
2023/11/11 10:05:53;;;;;;;12.30;5.23;;;7.80;99.90;;;;;;5040450;28;20243;-88
2023/11/11 10:08:23;;;;;;;6.90;4.45;;;7.70;99.90;;;;;;5075726;28;20552;-87
2023/11/11 10:10:49;;;;;;;9.52;4.90;;;7.80;99.90;;;;;;5074205;28;20169;-87
2023/11/11 10:13:15;;;;;;;5.80;3.57;;;7.80;99.90;;;;;;5074798;28;20513;-87
2023/11/11 10:15:41;;;;;;;11.13;5.07;;;7.90;99.90;;;;;;5057106;28;20188;-87
2023/11/11 10:18:06;;;;;;;6.00;3.83;;;7.90;99.90;;;;;;5057278;28;20242;-87
2023/11/11 10:20:32;;;;;;;13.73;4.50;;;8.00;99.90;;;;;;5057608;28;20215;-86
2023/11/11 10:23:00;;;;;;;6.67;4.90;;;7.90;99.90;;;;;;5057033;28;20180;-86
2023/11/11 10:25:26;;;;;;;8.32;4.25;;;8.00;99.90;;;;;;5040942;28;20208;-86
2023/11/11 10:27:55;;;;;;;7.23;4.37;;;8.00;99.90;;;;;;5075370;28;20200;-86
2023/11/11 10:30:25;;;;;;;9.52;4.60;;;8.00;99.90;;;;;;5074751;28;20536;-86
2023/11/11 10:32:53;;;;;;;11.18;3.58;;;8.00;99.90;;;;;;5057265;28;20655;-86
2023/11/11 10:35:20;;;;;;;7.90;4.25;;;8.00;99.90;;;;;;5024255;28;20187;-84
2023/11/11 10:37:47;;;;;;;7.65;3.35;;;7.90;99.90;;;;;;5040658;28;20633;-85
2023/11/11 10:40:18;;;;;;;7.13;4.00;;;8.20;99.90;;;;;;5057744;28;20177;-86
2023/11/11 10:42:45;;;;;;;4.53;3.00;;;8.60;99.90;;;;;;5057592;28;20180;-85
2023/11/11 10:45:15;;;;;;;5.38;2.85;;;9.10;99.90;;;;;;5057135;28;20276;-85
2023/11/11 10:47:47;;;;;;;6.35;3.33;;;9.40;99.90;;;;;;5041522;28;20185;-85
2023/11/11 10:50:13;;;;;;;5.30;3.28;;;9.50;99.90;;;;;;5042303;28;20181;-85
2023/11/11 10:52:43;;;;;;;5.25;3.35;;;9.40;99.90;;;;;;5073918;28;20991;-85
2023/11/11 10:55:10;;;;;;;4.75;3.10;;;9.50;99.90;;;;;;5075520;28;20180;-85
2023/11/11 10:57:38;;;;;;;6.18;2.85;;;9.60;99.90;;;;;;5056906;28;20180;-82
2023/11/11 11:00:12;;;;;;;5.07;2.72;;;9.70;99.90;;;;;;5054017;28;20193;-82
2023/11/11 11:02:38;;;;;;;4.50;2.67;;;9.90;99.90;;;;;;5053962;28;20222;-81
2023/11/11 11:05:09;;;;;;;7.47;3.77;;;10.10;99.90;;;;;;5054070;28;20182;-82
2023/11/11 11:07:41;;;;;;;4.07;3.20;;;9.70;99.90;;;;;;5037944;28;20252;-81
2023/11/11 11:10:20;;;;;;;7.63;2.10;;;9.20;99.90;;;;;;5069301;28;20181;-85
2023/11/11 11:12:55;;;;;;;4.63;2.72;;;8.90;99.90;;;;;;5075482;28;20219;-84
2023/11/11 11:15:21;;;;;;;7.65;3.15;;;8.70;99.90;;;;;;5057624;28;20183;-83
2023/11/11 11:17:51;;;;;;;4.43;2.37;;;8.60;99.90;;;;;;5078921;28;20604;-84
2023/11/11 11:20:24;;;;;;;7.97;2.78;;;8.60;99.90;;;;;;5061650;28;20161;-84
2023/11/11 11:23:04;;;;;;;7.13;3.03;;;8.60;99.90;;;;;;5060813;28;20219;-85
2023/11/11 11:25:37;;;;;;;7.78;3.47;;;8.70;99.90;;;;;;5078524;28;20185;-84
2023/11/11 11:28:12;;;;;;;6.97;2.75;;;8.70;99.90;;;;;;5061105;28;20173;-83
2023/11/11 11:30:50;;;;;;;7.32;2.60;;;8.80;99.90;;;;;;5057163;28;20216;-84
2023/11/11 11:33:18;;;;;;;4.78;2.45;;;8.80;99.90;;;;;;5041100;28;20189;-84
2023/11/11 11:36:06;;;;;;;5.00;2.30;;;8.80;99.90;;;;;;5040333;28;20642;-84
2023/11/11 11:38:39;;;;;;;4.85;2.45;;;8.70;99.90;;;;;;5057193;28;20238;-84
2023/11/11 11:41:10;;;;;;;4.30;2.35;;;8.70;99.90;;;;;;5058766;28;20197;-83
2023/11/11 11:43:39;;;;;;;7.03;2.40;;;8.70;99.90;;;;;;5040346;28;20207;-84
2023/11/11 11:46:05;;;;;;;6.10;4.38;;;8.60;99.90;;;;;;5064222;28;20211;-85
2023/11/11 11:48:36;;;;;;;5.20;2.45;;;8.70;99.90;;;;;;5043653;28;20662;-84
2023/11/11 11:51:13;;;;;;;4.50;2.50;;;8.80;99.90;;;;;;5078295;28;20173;-84
2023/11/11 11:53:48;;;;;;;4.00;2.00;;;8.90;99.90;;;;;;5078464;28;20165;-84
2023/11/11 11:56:30;;;;;;;3.47;1.67;;;9.10;99.90;;;;;;5060416;28;20560;-85
2023/11/11 11:58:58;;;;;;;3.58;1.70;;;9.20;99.90;;;;;;5059975;28;20185;-85
2023/11/11 12:01:27;;;;;;;6.05;2.90;;;9.20;99.90;;;;;;5056717;28;20193;-84
2023/11/11 12:03:54;;;;;;;6.70;2.42;;;9.30;99.90;;;;;;5057987;28;20185;-85
2023/11/11 12:06:24;;;;;;;6.82;2.55;;;9.50;99.90;;;;;;5057295;28;20275;-84
2023/11/11 12:08:54;;;;;;;6.05;1.90;;;9.70;99.90;;;;;;5057959;28;20170;-82
2023/11/11 12:11:31;;;;;;;5.65;1.80;;;10.00;99.90;;;;;;5057758;28;20174;-82
2023/11/11 12:14:07;;;;;;;4.55;1.77;;;9.90;99.90;;;;;;5057823;28;20169;-82
2023/11/11 12:16:39;;;;;;;5.80;2.28;;;9.60;99.90;;;;;;5057595;28;20162;-81
2023/11/11 12:19:18;;;;;;;8.10;2.90;;;9.50;99.90;;;;;;5057959;28;20527;-82
2023/11/11 12:21:50;;;;;;;2.50;2.25;;;9.50;99.90;;;;;;5057533;28;20692;-81
2023/11/11 12:24:17;;;;;;;4.05;1.98;;;9.60;99.90;;;;;;5057607;28;20173;-82
2023/11/11 12:26:44;;;;;;;4.13;2.00;;;9.60;99.90;;;;;;5057196;28;20212;-81
2023/11/11 12:29:10;;;;;;;11.52;2.03;;;9.50;99.90;;;;;;5058172;28;20511;-82
2023/11/11 12:31:46;;;;;;;4.68;2.42;;;9.70;99.90;;;;;;5039393;28;20189;-81
2023/11/11 12:34:13;;;;;;;4.15;2.10;;;10.00;99.90;;;;;;5057880;28;20196;-82
2023/11/11 12:36:39;;;;;;;2.92;1.90;;;10.20;99.90;;;;;;5056866;28;20185;-82
2023/11/11 12:39:08;;;;;;;3.50;1.70;;;10.40;99.90;;;;;;5055143;28;20180;-82
2023/11/11 12:41:38;;;;;;;4.65;1.83;;;10.50;99.90;;;;;;5077415;28;20188;-82
2023/11/11 12:44:09;;;;;;;4.05;2.20;;;10.30;99.90;;;;;;5077720;28;20173;-82
2023/11/11 12:46:39;;;;;;;7.63;2.33;;;10.00;99.90;;;;;;5059738;28;20208;-82
2023/11/11 12:49:12;;;;;;;3.38;1.83;;;9.90;99.90;;;;;;5058925;28;20216;-83
2023/11/11 12:51:39;;;;;;;3.80;1.60;;;9.60;99.90;;;;;;5076557;28;20609;-82
2023/11/11 12:54:05;;;;;;;1.77;1.42;;;9.40;99.90;;;;;;5059237;28;20601;-83
2023/11/11 12:56:32;;;;;;;4.20;1.40;;;9.10;99.90;;;;;;5076614;28;20183;-83
2023/11/11 12:59:05;;;;;;;3.25;1.58;;;8.80;99.90;;;;;;5076657;28;20177;-89
2023/11/11 13:01:31;;;;;;;1.30;1.20;;;8.50;99.90;;;;;;5028384;28;20254;-90
2023/11/11 13:04:15;;;;;;;1.37;1.00;;;8.10;99.90;;;;;;5040388;28;20256;-91
2023/11/11 13:06:41;;;;;;;1.77;1.50;;;7.80;99.90;;;;;;5057329;28;20448;-91